sensor_id;sensor_type;location;lat;lon;timestamp;P1;durP1;ratioP1;P2;durP2;ratioP2
51732;SDS011;39139;53.144;6.244;2023-04-01T00:00:55;10.27;;;7.90;;
51732;SDS011;39139;53.144;6.244;2023-04-01T00:03:22;8.85;;;7.93;;
51732;SDS011;39139;53.144;6.244;2023-04-01T00:05:49;9.23;;;8.27;;
51732;SDS011;39139;53.144;6.244;2023-04-01T00:08:15;10.40;;;8.65;;
51732;SDS011;39139;53.144;6.244;2023-04-01T00:10:41;9.75;;;8.40;;
51732;SDS011;39139;53.144;6.244;2023-04-01T00:13:06;9.13;;;8.23;;
51732;SDS011;39139;53.144;6.244;2023-04-01T00:15:32;10.43;;;8.32;;
51732;SDS011;39139;53.144;6.244;2023-04-01T00:17:58;10.15;;;8.93;;
51732;SDS011;39139;53.144;6.244;2023-04-01T00:20:24;9.38;;;8.48;;
51732;SDS011;39139;53.144;6.244;2023-04-01T00:22:50;10.82;;;9.73;;
51732;SDS011;39139;53.144;6.244;2023-04-01T00:25:16;9.80;;;8.30;;
51732;SDS011;39139;53.144;6.244;2023-04-01T00:27:42;9.63;;;8.50;;
51732;SDS011;39139;53.144;6.244;2023-04-01T00:30:07;10.68;;;9.52;;
51732;SDS011;39139;53.144;6.244;2023-04-01T00:32:34;9.63;;;8.40;;
51732;SDS011;39139;53.144;6.244;2023-04-01T00:35:00;9.48;;;8.48;;
51732;SDS011;39139;53.144;6.244;2023-04-01T00:37:26;10.55;;;9.50;;
51732;SDS011;39139;53.144;6.244;2023-04-01T00:39:52;10.32;;;9.32;;
51732;SDS011;39139;53.144;6.244;2023-04-01T00:42:18;10.05;;;9.00;;
51732;SDS011;39139;53.144;6.244;2023-04-01T00:44:54;10.55;;;9.45;;
51732;SDS011;39139;53.144;6.244;2023-04-01T00:47:20;9.55;;;8.48;;
51732;SDS011;39139;53.144;6.244;2023-04-01T00:49:49;10.57;;;9.57;;
51732;SDS011;39139;53.144;6.244;2023-04-01T00:52:17;9.13;;;8.27;;
51732;SDS011;39139;53.144;6.244;2023-04-01T00:54:47;12.43;;;10.23;;
51732;SDS011;39139;53.144;6.244;2023-04-01T00:57:24;10.23;;;9.23;;
51732;SDS011;39139;53.144;6.244;2023-04-01T00:59:54;11.43;;;9.52;;
51732;SDS011;39139;53.144;6.244;2023-04-01T01:02:20;9.40;;;8.38;;
51732;SDS011;39139;53.144;6.244;2023-04-01T01:04:46;10.82;;;9.68;;
51732;SDS011;39139;53.144;6.244;2023-04-01T01:10:18;12.18;;;10.75;;
51732;SDS011;39139;53.144;6.244;2023-04-01T01:21:01;12.10;;;10.50;;
51732;SDS011;39139;53.144;6.244;2023-04-01T01:26:44;13.05;;;11.25;;
51732;SDS011;39139;53.144;6.244;2023-04-01T01:32:33;12.73;;;11.45;;
51732;SDS011;39139;53.144;6.244;2023-04-01T01:37:50;12.20;;;10.57;;
51732;SDS011;39139;53.144;6.244;2023-04-01T01:40:19;12.40;;;10.23;;
51732;SDS011;39139;53.144;6.244;2023-04-01T01:42:47;12.20;;;10.63;;
51732;SDS011;39139;53.144;6.244;2023-04-01T01:47:43;11.45;;;10.23;;
51732;SDS011;39139;53.144;6.244;2023-04-01T01:50:11;13.77;;;10.00;;
51732;SDS011;39139;53.144;6.244;2023-04-01T01:52:38;12.82;;;9.85;;
51732;SDS011;39139;53.144;6.244;2023-04-01T01:55:22;12.70;;;10.18;;
51732;SDS011;39139;53.144;6.244;2023-04-01T01:57:55;10.88;;;9.77;;
51732;SDS011;39139;53.144;6.244;2023-04-01T02:00:24;11.80;;;9.85;;
51732;SDS011;39139;53.144;6.244;2023-04-01T02:02:50;12.40;;;9.90;;
51732;SDS011;39139;53.144;6.244;2023-04-01T02:05:17;11.88;;;10.55;;
51732;SDS011;39139;53.144;6.244;2023-04-01T02:07:48;11.93;;;9.50;;
51732;SDS011;39139;53.144;6.244;2023-04-01T02:10:21;10.07;;;9.02;;
51732;SDS011;39139;53.144;6.244;2023-04-01T02:12:50;11.98;;;10.77;;
51732;SDS011;39139;53.144;6.244;2023-04-01T02:15:17;11.27;;;10.15;;
51732;SDS011;39139;53.144;6.244;2023-04-01T02:17:45;12.02;;;10.68;;
51732;SDS011;39139;53.144;6.244;2023-04-01T02:20:14;14.48;;;10.60;;
51732;SDS011;39139;53.144;6.244;2023-04-01T02:25:14;12.25;;;11.02;;
51732;SDS011;39139;53.144;6.244;2023-04-01T02:27:43;12.27;;;9.50;;
51732;SDS011;39139;53.144;6.244;2023-04-01T02:30:11;13.50;;;11.02;;
51732;SDS011;39139;53.144;6.244;2023-04-01T02:32:38;11.70;;;10.52;;
51732;SDS011;39139;53.144;6.244;2023-04-01T02:35:06;11.95;;;10.68;;
51732;SDS011;39139;53.144;6.244;2023-04-01T02:37:35;14.52;;;11.77;;
51732;SDS011;39139;53.144;6.244;2023-04-01T02:40:02;12.45;;;11.15;;
51732;SDS011;39139;53.144;6.244;2023-04-01T02:42:31;13.15;;;11.65;;
51732;SDS011;39139;53.144;6.244;2023-04-01T02:44:57;13.00;;;11.60;;
51732;SDS011;39139;53.144;6.244;2023-04-01T02:47:22;12.63;;;11.18;;
51732;SDS011;39139;53.144;6.244;2023-04-01T02:49:48;13.15;;;11.75;;
51732;SDS011;39139;53.144;6.244;2023-04-01T02:52:14;13.85;;;11.50;;
51732;SDS011;39139;53.144;6.244;2023-04-01T02:54:39;14.57;;;12.90;;
51732;SDS011;39139;53.144;6.244;2023-04-01T02:57:05;11.68;;;10.25;;
51732;SDS011;39139;53.144;6.244;2023-04-01T02:59:31;13.70;;;12.27;;
51732;SDS011;39139;53.144;6.244;2023-04-01T03:01:57;17.02;;;12.38;;
51732;SDS011;39139;53.144;6.244;2023-04-01T03:04:23;14.55;;;11.23;;
51732;SDS011;39139;53.144;6.244;2023-04-01T03:06:48;14.25;;;12.20;;
51732;SDS011;39139;53.144;6.244;2023-04-01T03:09:14;13.80;;;12.40;;
51732;SDS011;39139;53.144;6.244;2023-04-01T03:11:41;16.33;;;12.93;;
51732;SDS011;39139;53.144;6.244;2023-04-01T03:14:06;14.30;;;12.52;;
51732;SDS011;39139;53.144;6.244;2023-04-01T03:16:32;19.30;;;12.90;;
51732;SDS011;39139;53.144;6.244;2023-04-01T03:18:58;13.80;;;12.15;;
51732;SDS011;39139;53.144;6.244;2023-04-01T03:21:24;19.42;;;14.48;;
51732;SDS011;39139;53.144;6.244;2023-04-01T03:23:50;14.90;;;12.70;;
51732;SDS011;39139;53.144;6.244;2023-04-01T03:26:16;16.00;;;13.18;;
51732;SDS011;39139;53.144;6.244;2023-04-01T03:28:42;17.88;;;14.20;;
51732;SDS011;39139;53.144;6.244;2023-04-01T03:31:08;15.60;;;12.50;;
51732;SDS011;39139;53.144;6.244;2023-04-01T03:33:34;16.08;;;11.35;;
51732;SDS011;39139;53.144;6.244;2023-04-01T03:36:00;16.98;;;13.00;;
51732;SDS011;39139;53.144;6.244;2023-04-01T03:38:25;13.75;;;12.27;;
51732;SDS011;39139;53.144;6.244;2023-04-01T03:40:51;17.45;;;13.63;;
51732;SDS011;39139;53.144;6.244;2023-04-01T03:43:17;17.13;;;12.52;;
51732;SDS011;39139;53.144;6.244;2023-04-01T03:45:43;18.73;;;13.27;;
51732;SDS011;39139;53.144;6.244;2023-04-01T03:48:10;17.60;;;12.95;;
51732;SDS011;39139;53.144;6.244;2023-04-01T03:50:35;14.60;;;12.30;;
51732;SDS011;39139;53.144;6.244;2023-04-01T03:53:01;15.65;;;12.90;;
51732;SDS011;39139;53.144;6.244;2023-04-01T03:55:27;16.58;;;12.95;;
51732;SDS011;39139;53.144;6.244;2023-04-01T03:57:52;19.88;;;14.18;;
51732;SDS011;39139;53.144;6.244;2023-04-01T04:00:18;19.67;;;14.73;;
51732;SDS011;39139;53.144;6.244;2023-04-01T04:02:44;17.02;;;12.95;;
51732;SDS011;39139;53.144;6.244;2023-04-01T04:05:10;17.17;;;14.60;;
51732;SDS011;39139;53.144;6.244;2023-04-01T04:07:35;15.18;;;12.48;;
51732;SDS011;39139;53.144;6.244;2023-04-01T04:10:01;20.60;;;14.20;;
51732;SDS011;39139;53.144;6.244;2023-04-01T04:12:27;16.23;;;13.32;;
51732;SDS011;39139;53.144;6.244;2023-04-01T04:14:53;17.77;;;14.40;;
51732;SDS011;39139;53.144;6.244;2023-04-01T04:17:18;16.77;;;14.57;;
51732;SDS011;39139;53.144;6.244;2023-04-01T04:19:44;19.17;;;13.65;;
51732;SDS011;39139;53.144;6.244;2023-04-01T04:22:09;19.13;;;15.23;;
51732;SDS011;39139;53.144;6.244;2023-04-01T04:24:35;17.42;;;13.98;;
51732;SDS011;39139;53.144;6.244;2023-04-01T04:27:02;16.48;;;14.52;;
51732;SDS011;39139;53.144;6.244;2023-04-01T04:29:28;20.05;;;14.52;;
51732;SDS011;39139;53.144;6.244;2023-04-01T04:31:53;17.35;;;14.57;;
51732;SDS011;39139;53.144;6.244;2023-04-01T04:34:19;17.90;;;15.18;;
51732;SDS011;39139;53.144;6.244;2023-04-01T04:36:46;20.77;;;15.90;;
51732;SDS011;39139;53.144;6.244;2023-04-01T04:39:12;20.20;;;14.68;;
51732;SDS011;39139;53.144;6.244;2023-04-01T04:41:37;19.85;;;15.77;;
51732;SDS011;39139;53.144;6.244;2023-04-01T04:44:03;21.50;;;16.38;;
51732;SDS011;39139;53.144;6.244;2023-04-01T04:46:30;23.23;;;17.23;;
51732;SDS011;39139;53.144;6.244;2023-04-01T04:48:56;23.02;;;17.08;;
51732;SDS011;39139;53.144;6.244;2023-04-01T04:51:22;21.52;;;16.60;;
51732;SDS011;39139;53.144;6.244;2023-04-01T04:53:48;25.27;;;17.00;;
51732;SDS011;39139;53.144;6.244;2023-04-01T04:56:20;23.45;;;17.58;;
51732;SDS011;39139;53.144;6.244;2023-04-01T04:58:47;25.38;;;17.42;;
51732;SDS011;39139;53.144;6.244;2023-04-01T05:01:16;23.60;;;17.83;;
51732;SDS011;39139;53.144;6.244;2023-04-01T05:03:42;23.15;;;18.67;;
51732;SDS011;39139;53.144;6.244;2023-04-01T05:06:08;23.48;;;18.27;;
51732;SDS011;39139;53.144;6.244;2023-04-01T05:08:36;27.75;;;18.50;;
51732;SDS011;39139;53.144;6.244;2023-04-01T05:11:03;28.52;;;18.77;;
51732;SDS011;39139;53.144;6.244;2023-04-01T05:13:34;24.88;;;19.40;;
51732;SDS011;39139;53.144;6.244;2023-04-01T05:16:00;24.98;;;18.58;;
51732;SDS011;39139;53.144;6.244;2023-04-01T05:18:26;24.63;;;18.83;;
51732;SDS011;39139;53.144;6.244;2023-04-01T05:20:52;24.00;;;18.02;;
51732;SDS011;39139;53.144;6.244;2023-04-01T05:23:19;25.80;;;19.13;;
51732;SDS011;39139;53.144;6.244;2023-04-01T05:25:50;22.25;;;18.00;;
51732;SDS011;39139;53.144;6.244;2023-04-01T05:28:18;25.23;;;18.95;;
51732;SDS011;39139;53.144;6.244;2023-04-01T05:30:44;26.42;;;17.92;;
51732;SDS011;39139;53.144;6.244;2023-04-01T05:33:10;24.55;;;18.80;;
51732;SDS011;39139;53.144;6.244;2023-04-01T05:35:38;26.40;;;18.58;;
51732;SDS011;39139;53.144;6.244;2023-04-01T05:38:05;30.30;;;20.42;;
51732;SDS011;39139;53.144;6.244;2023-04-01T05:40:31;26.70;;;19.33;;
51732;SDS011;39139;53.144;6.244;2023-04-01T05:42:59;28.20;;;19.50;;
51732;SDS011;39139;53.144;6.244;2023-04-01T05:45:25;29.65;;;21.02;;
51732;SDS011;39139;53.144;6.244;2023-04-01T05:47:52;33.53;;;21.77;;
51732;SDS011;39139;53.144;6.244;2023-04-01T05:50:17;28.67;;;20.27;;
51732;SDS011;39139;53.144;6.244;2023-04-01T05:52:43;30.67;;;22.17;;
51732;SDS011;39139;53.144;6.244;2023-04-01T05:55:10;32.60;;;22.15;;
51732;SDS011;39139;53.144;6.244;2023-04-01T05:57:35;30.45;;;22.52;;
51732;SDS011;39139;53.144;6.244;2023-04-01T06:00:02;29.92;;;20.60;;
51732;SDS011;39139;53.144;6.244;2023-04-01T06:02:29;29.02;;;22.58;;
51732;SDS011;39139;53.144;6.244;2023-04-01T06:04:59;32.17;;;21.38;;
51732;SDS011;39139;53.144;6.244;2023-04-01T06:07:37;25.63;;;19.38;;
51732;SDS011;39139;53.144;6.244;2023-04-01T06:10:08;24.35;;;18.98;;
51732;SDS011;39139;53.144;6.244;2023-04-01T06:15:29;24.25;;;18.30;;
51732;SDS011;39139;53.144;6.244;2023-04-01T06:18:16;21.70;;;16.02;;
51732;SDS011;39139;53.144;6.244;2023-04-01T06:21:22;22.50;;;16.35;;
51732;SDS011;39139;53.144;6.244;2023-04-01T06:27:31;22.00;;;16.33;;
51732;SDS011;39139;53.144;6.244;2023-04-01T06:30:34;19.58;;;15.60;;
51732;SDS011;39139;53.144;6.244;2023-04-01T06:46:54;17.48;;;12.15;;
51732;SDS011;39139;53.144;6.244;2023-04-01T06:52:30;17.75;;;14.13;;
51732;SDS011;39139;53.144;6.244;2023-04-01T06:57:55;14.95;;;12.25;;
51732;SDS011;39139;53.144;6.244;2023-04-01T07:03:03;15.13;;;12.15;;
51732;SDS011;39139;53.144;6.244;2023-04-01T07:07:57;16.17;;;13.02;;
51732;SDS011;39139;53.144;6.244;2023-04-01T07:13:06;18.30;;;14.38;;
51732;SDS011;39139;53.144;6.244;2023-04-01T07:15:42;21.15;;;15.32;;
51732;SDS011;39139;53.144;6.244;2023-04-01T07:18:15;22.20;;;15.73;;
51732;SDS011;39139;53.144;6.244;2023-04-01T07:20:45;23.92;;;16.73;;
51732;SDS011;39139;53.144;6.244;2023-04-01T07:23:16;23.17;;;17.90;;
51732;SDS011;39139;53.144;6.244;2023-04-01T07:25:58;27.15;;;20.33;;
51732;SDS011;39139;53.144;6.244;2023-04-01T07:28:29;24.03;;;19.43;;
51732;SDS011;39139;53.144;6.244;2023-04-01T07:39:17;30.52;;;21.85;;
51732;SDS011;39139;53.144;6.244;2023-04-01T07:41:55;26.02;;;20.20;;
51732;SDS011;39139;53.144;6.244;2023-04-01T07:44:53;30.55;;;22.55;;
51732;SDS011;39139;53.144;6.244;2023-04-01T07:56:37;27.48;;;22.67;;
51732;SDS011;39139;53.144;6.244;2023-04-01T07:59:14;31.42;;;23.63;;
51732;SDS011;39139;53.144;6.244;2023-04-01T08:01:50;28.92;;;23.60;;
51732;SDS011;39139;53.144;6.244;2023-04-01T08:04:39;27.60;;;22.02;;
51732;SDS011;39139;53.144;6.244;2023-04-01T08:07:29;26.75;;;22.38;;
51732;SDS011;39139;53.144;6.244;2023-04-01T08:23:11;17.98;;;15.70;;
51732;SDS011;39139;53.144;6.244;2023-04-01T08:26:06;16.75;;;15.05;;
51732;SDS011;39139;53.144;6.244;2023-04-01T08:28:43;17.67;;;14.32;;
51732;SDS011;39139;53.144;6.244;2023-04-01T08:34:08;19.52;;;17.35;;
51732;SDS011;39139;53.144;6.244;2023-04-01T08:36:43;20.20;;;18.10;;
51732;SDS011;39139;53.144;6.244;2023-04-01T08:39:18;20.73;;;18.52;;
51732;SDS011;39139;53.144;6.244;2023-04-01T08:42:13;22.08;;;17.23;;
51732;SDS011;39139;53.144;6.244;2023-04-01T08:48:01;19.95;;;16.88;;
51732;SDS011;39139;53.144;6.244;2023-04-01T09:01:44;17.50;;;15.10;;
51732;SDS011;39139;53.144;6.244;2023-04-01T09:15:50;16.55;;;14.88;;
51732;SDS011;39139;53.144;6.244;2023-04-01T09:27:53;10.60;;;8.07;;
51732;SDS011;39139;53.144;6.244;2023-04-01T09:30:32;8.07;;;7.28;;
51732;SDS011;39139;53.144;6.244;2023-04-01T09:33:22;10.05;;;8.90;;
51732;SDS011;39139;53.144;6.244;2023-04-01T09:36:07;9.55;;;8.02;;
51732;SDS011;39139;53.144;6.244;2023-04-01T09:38:57;8.32;;;7.53;;
51732;SDS011;39139;53.144;6.244;2023-04-01T09:44:51;7.93;;;6.72;;
51732;SDS011;39139;53.144;6.244;2023-04-01T09:47:42;7.78;;;6.95;;
51732;SDS011;39139;53.144;6.244;2023-04-01T09:50:21;6.00;;;5.47;;
51732;SDS011;39139;53.144;6.244;2023-04-01T09:55:52;5.70;;;5.25;;
51732;SDS011;39139;53.144;6.244;2023-04-01T09:58:43;6.00;;;5.40;;
51732;SDS011;39139;53.144;6.244;2023-04-01T10:01:32;4.90;;;4.50;;
51732;SDS011;39139;53.144;6.244;2023-04-01T10:10:09;4.43;;;4.03;;
51732;SDS011;39139;53.144;6.244;2023-04-01T10:32:56;5.22;;;3.80;;
51732;SDS011;39139;53.144;6.244;2023-04-01T11:04:29;5.75;;;3.17;;
51732;SDS011;39139;53.144;6.244;2023-04-01T11:23:43;2.80;;;2.00;;
51732;SDS011;39139;53.144;6.244;2023-04-01T11:32:20;2.20;;;2.10;;
51732;SDS011;39139;53.144;6.244;2023-04-01T11:34:55;2.72;;;2.08;;
51732;SDS011;39139;53.144;6.244;2023-04-01T11:48:38;2.13;;;2.00;;
51732;SDS011;39139;53.144;6.244;2023-04-01T11:53:44;1.80;;;1.70;;
51732;SDS011;39139;53.144;6.244;2023-04-01T11:56:27;1.75;;;1.67;;
51732;SDS011;39139;53.144;6.244;2023-04-01T12:05:24;2.30;;;2.00;;
51732;SDS011;39139;53.144;6.244;2023-04-01T12:13:35;2.95;;;2.00;;
51732;SDS011;39139;53.144;6.244;2023-04-01T12:16:13;3.08;;;2.10;;
51732;SDS011;39139;53.144;6.244;2023-04-01T12:19:15;3.88;;;1.50;;
51732;SDS011;39139;53.144;6.244;2023-04-01T12:31:14;2.65;;;1.55;;
51732;SDS011;39139;53.144;6.244;2023-04-01T12:34:05;1.85;;;1.75;;
51732;SDS011;39139;53.144;6.244;2023-04-01T12:49:43;1.80;;;1.60;;
51732;SDS011;39139;53.144;6.244;2023-04-01T12:52:15;2.00;;;1.90;;
51732;SDS011;39139;53.144;6.244;2023-04-01T12:57:26;3.03;;;1.75;;
51732;SDS011;39139;53.144;6.244;2023-04-01T13:00:15;1.65;;;1.55;;
51732;SDS011;39139;53.144;6.244;2023-04-01T13:16:26;1.00;;;1.00;;
51732;SDS011;39139;53.144;6.244;2023-04-01T13:19:07;1.45;;;1.20;;
51732;SDS011;39139;53.144;6.244;2023-04-01T13:27:29;1.95;;;1.67;;
51732;SDS011;39139;53.144;6.244;2023-04-01T13:35:26;1.50;;;1.40;;
51732;SDS011;39139;53.144;6.244;2023-04-01T13:38:11;1.30;;;1.30;;
51732;SDS011;39139;53.144;6.244;2023-04-01T13:41:00;2.88;;;1.73;;
51732;SDS011;39139;53.144;6.244;2023-04-01T13:43:38;4.78;;;1.70;;
51732;SDS011;39139;53.144;6.244;2023-04-01T13:54:18;1.73;;;1.45;;
51732;SDS011;39139;53.144;6.244;2023-04-01T14:05:02;2.95;;;1.17;;
51732;SDS011;39139;53.144;6.244;2023-04-01T14:10:19;1.13;;;1.05;;
51732;SDS011;39139;53.144;6.244;2023-04-01T14:16:27;1.80;;;1.00;;
51732;SDS011;39139;53.144;6.244;2023-04-01T14:40:45;1.10;;;1.00;;
51732;SDS011;39139;53.144;6.244;2023-04-01T14:46:04;1.48;;;1.10;;
51732;SDS011;39139;53.144;6.244;2023-04-01T14:51:48;1.30;;;0.93;;
51732;SDS011;39139;53.144;6.244;2023-04-01T14:54:16;1.85;;;1.10;;
51732;SDS011;39139;53.144;6.244;2023-04-01T14:56:51;1.88;;;1.17;;
51732;SDS011;39139;53.144;6.244;2023-04-01T14:59:34;1.52;;;0.85;;
51732;SDS011;39139;53.144;6.244;2023-04-01T15:02:22;2.63;;;0.80;;
51732;SDS011;39139;53.144;6.244;2023-04-01T15:05:14;0.60;;;0.60;;
51732;SDS011;39139;53.144;6.244;2023-04-01T15:08:00;1.13;;;0.82;;
51732;SDS011;39139;53.144;6.244;2023-04-01T15:10:43;1.65;;;0.90;;
51732;SDS011;39139;53.144;6.244;2023-04-01T15:13:31;2.92;;;1.17;;
51732;SDS011;39139;53.144;6.244;2023-04-01T15:24:26;2.08;;;1.40;;
51732;SDS011;39139;53.144;6.244;2023-04-01T15:27:16;6.68;;;1.77;;
51732;SDS011;39139;53.144;6.244;2023-04-01T15:29:59;3.25;;;1.67;;
51732;SDS011;39139;53.144;6.244;2023-04-01T15:32:46;2.47;;;1.38;;
51732;SDS011;39139;53.144;6.244;2023-04-01T15:41:16;3.83;;;2.08;;
51732;SDS011;39139;53.144;6.244;2023-04-01T15:44:01;4.03;;;2.05;;
51732;SDS011;39139;53.144;6.244;2023-04-01T15:52:10;3.17;;;2.13;;
51732;SDS011;39139;53.144;6.244;2023-04-01T15:57:38;6.45;;;3.05;;
51732;SDS011;39139;53.144;6.244;2023-04-01T16:03:09;4.65;;;2.95;;
51732;SDS011;39139;53.144;6.244;2023-04-01T16:14:14;5.22;;;3.65;;
51732;SDS011;39139;53.144;6.244;2023-04-01T16:19:37;7.53;;;4.57;;
51732;SDS011;39139;53.144;6.244;2023-04-01T16:22:23;7.90;;;4.32;;
51732;SDS011;39139;53.144;6.244;2023-04-01T16:25:17;8.57;;;4.18;;
51732;SDS011;39139;53.144;6.244;2023-04-01T16:30:43;4.80;;;3.95;;
51732;SDS011;39139;53.144;6.244;2023-04-01T16:41:49;8.13;;;4.43;;
51732;SDS011;39139;53.144;6.244;2023-04-01T16:44:27;6.32;;;4.28;;
51732;SDS011;39139;53.144;6.244;2023-04-01T16:46:54;9.18;;;5.07;;
51732;SDS011;39139;53.144;6.244;2023-04-01T16:49:42;8.07;;;5.05;;
51732;SDS011;39139;53.144;6.244;2023-04-01T16:52:36;8.70;;;4.63;;
51732;SDS011;39139;53.144;6.244;2023-04-01T16:55:34;11.45;;;5.95;;
51732;SDS011;39139;53.144;6.244;2023-04-01T17:01:20;9.18;;;5.72;;
51732;SDS011;39139;53.144;6.244;2023-04-01T17:03:57;8.13;;;6.18;;
51732;SDS011;39139;53.144;6.244;2023-04-01T17:17:56;9.35;;;6.28;;
51732;SDS011;39139;53.144;6.244;2023-04-01T17:20:32;15.43;;;6.72;;
51732;SDS011;39139;53.144;6.244;2023-04-01T17:25:48;15.55;;;6.88;;
51732;SDS011;39139;53.144;6.244;2023-04-01T17:34:29;13.68;;;4.97;;
51732;SDS011;39139;53.144;6.244;2023-04-01T17:37:49;12.73;;;6.95;;
51732;SDS011;39139;53.144;6.244;2023-04-01T17:43:00;8.35;;;5.70;;
51732;SDS011;39139;53.144;6.244;2023-04-01T18:06:04;9.85;;;6.22;;
51732;SDS011;39139;53.144;6.244;2023-04-01T18:08:58;12.02;;;6.28;;
51732;SDS011;39139;53.144;6.244;2023-04-01T18:14:29;11.60;;;6.85;;
51732;SDS011;39139;53.144;6.244;2023-04-01T18:17:18;16.17;;;8.93;;
51732;SDS011;39139;53.144;6.244;2023-04-01T18:19:53;11.50;;;7.75;;
51732;SDS011;39139;53.144;6.244;2023-04-01T18:33:36;13.20;;;7.72;;
51732;SDS011;39139;53.144;6.244;2023-04-01T18:44:50;10.63;;;7.05;;
51732;SDS011;39139;53.144;6.244;2023-04-01T18:55:59;17.73;;;9.30;;
51732;SDS011;39139;53.144;6.244;2023-04-01T18:58:34;29.52;;;17.15;;
51732;SDS011;39139;53.144;6.244;2023-04-01T19:01:28;14.43;;;8.45;;
51732;SDS011;39139;53.144;6.244;2023-04-01T19:13:16;27.63;;;13.35;;
51732;SDS011;39139;53.144;6.244;2023-04-01T19:29:43;14.55;;;8.10;;
51732;SDS011;39139;53.144;6.244;2023-04-01T19:35:28;14.27;;;8.37;;
51732;SDS011;39139;53.144;6.244;2023-04-01T19:41:43;13.73;;;8.02;;
51732;SDS011;39139;53.144;6.244;2023-04-01T19:49:57;13.18;;;7.93;;
51732;SDS011;39139;53.144;6.244;2023-04-01T19:52:45;12.55;;;6.55;;
51732;SDS011;39139;53.144;6.244;2023-04-01T19:58:00;16.00;;;10.05;;
51732;SDS011;39139;53.144;6.244;2023-04-01T20:00:47;18.02;;;10.38;;
51732;SDS011;39139;53.144;6.244;2023-04-01T20:03:37;20.95;;;13.10;;
51732;SDS011;39139;53.144;6.244;2023-04-01T20:08:54;15.90;;;7.47;;
51732;SDS011;39139;53.144;6.244;2023-04-01T20:16:17;10.88;;;7.20;;
51732;SDS011;39139;53.144;6.244;2023-04-01T20:21:29;10.35;;;6.30;;
51732;SDS011;39139;53.144;6.244;2023-04-01T20:27:08;9.43;;;6.63;;
51732;SDS011;39139;53.144;6.244;2023-04-01T20:29:56;10.60;;;6.95;;
51732;SDS011;39139;53.144;6.244;2023-04-01T20:40:52;11.75;;;6.43;;
51732;SDS011;39139;53.144;6.244;2023-04-01T20:45:59;10.10;;;5.95;;
51732;SDS011;39139;53.144;6.244;2023-04-01T20:51:16;9.07;;;5.10;;
51732;SDS011;39139;53.144;6.244;2023-04-01T20:54:24;12.15;;;6.18;;
51732;SDS011;39139;53.144;6.244;2023-04-01T20:56:57;20.83;;;7.32;;
51732;SDS011;39139;53.144;6.244;2023-04-01T21:07:40;14.60;;;5.72;;
51732;SDS011;39139;53.144;6.244;2023-04-01T21:18:28;8.60;;;4.85;;
51732;SDS011;39139;53.144;6.244;2023-04-01T21:35:18;9.43;;;5.25;;
51732;SDS011;39139;53.144;6.244;2023-04-01T21:38:07;7.20;;;4.90;;
51732;SDS011;39139;53.144;6.244;2023-04-01T21:46:44;13.15;;;5.30;;
51732;SDS011;39139;53.144;6.244;2023-04-01T21:55:26;7.82;;;3.67;;
51732;SDS011;39139;53.144;6.244;2023-04-01T22:06:11;11.05;;;5.25;;
51732;SDS011;39139;53.144;6.244;2023-04-01T22:08:52;11.98;;;5.10;;
51732;SDS011;39139;53.144;6.244;2023-04-01T22:11:41;9.93;;;5.70;;
51732;SDS011;39139;53.144;6.244;2023-04-01T22:22:13;6.38;;;4.95;;
51732;SDS011;39139;53.144;6.244;2023-04-01T22:25:24;13.20;;;5.22;;
51732;SDS011;39139;53.144;6.244;2023-04-01T22:28:00;15.02;;;5.15;;
51732;SDS011;39139;53.144;6.244;2023-04-01T22:30:50;12.07;;;5.60;;
51732;SDS011;39139;53.144;6.244;2023-04-01T22:36:11;10.55;;;4.93;;
51732;SDS011;39139;53.144;6.244;2023-04-01T22:39:01;11.70;;;5.72;;
51732;SDS011;39139;53.144;6.244;2023-04-01T22:41:49;13.18;;;6.55;;
51732;SDS011;39139;53.144;6.244;2023-04-01T22:52:31;13.23;;;4.82;;
51732;SDS011;39139;53.144;6.244;2023-04-01T22:55:04;12.63;;;4.05;;
51732;SDS011;39139;53.144;6.244;2023-04-01T22:57:40;11.52;;;4.40;;
51732;SDS011;39139;53.144;6.244;2023-04-01T23:00:16;8.00;;;3.63;;
51732;SDS011;39139;53.144;6.244;2023-04-01T23:02:58;8.02;;;4.00;;
51732;SDS011;39139;53.144;6.244;2023-04-01T23:05:31;10.75;;;3.55;;
51732;SDS011;39139;53.144;6.244;2023-04-01T23:10:53;6.38;;;3.55;;
51732;SDS011;39139;53.144;6.244;2023-04-01T23:13:24;9.25;;;3.45;;
51732;SDS011;39139;53.144;6.244;2023-04-01T23:15:54;6.88;;;3.10;;
51732;SDS011;39139;53.144;6.244;2023-04-01T23:21:30;7.78;;;3.65;;
51732;SDS011;39139;53.144;6.244;2023-04-01T23:29:04;5.60;;;3.38;;
51732;SDS011;39139;53.144;6.244;2023-04-01T23:31:39;7.00;;;3.45;;
51732;SDS011;39139;53.144;6.244;2023-04-01T23:36:40;4.55;;;2.83;;
51732;SDS011;39139;53.144;6.244;2023-04-01T23:42:00;6.72;;;3.33;;
51732;SDS011;39139;53.144;6.244;2023-04-01T23:44:30;8.07;;;3.33;;
51732;SDS011;39139;53.144;6.244;2023-04-01T23:46:57;9.05;;;3.63;;
51732;SDS011;39139;53.144;6.244;2023-04-01T23:49:28;9.27;;;4.10;;
